createdAt,value
2022-11-07T00:00:50.436Z,16.7
2022-11-07T00:02:50.213Z,16.5
2022-11-07T00:04:50.675Z,15.4
2022-11-07T00:06:49.861Z,15.2
2022-11-07T00:08:49.771Z,15.2
2022-11-07T00:10:50.614Z,15.0
2022-11-07T00:12:50.496Z,14.8
2022-11-07T00:14:50.412Z,14.7
2022-11-07T00:16:50.539Z,14.7
2022-11-07T00:18:50.468Z,13.8
2022-11-07T00:20:50.371Z,13.8
2022-11-07T00:22:50.070Z,13.6
2022-11-07T00:24:50.017Z,13.5
2022-11-07T00:26:50.615Z,12.4
2022-11-07T00:28:50.598Z,12.4
2022-11-07T00:30:50.528Z,12.4
2022-11-07T00:32:50.391Z,12.1
2022-11-07T00:34:50.498Z,12.1
2022-11-07T00:36:50.438Z,12.0
2022-11-07T00:38:50.027Z,12.0
2022-11-07T00:40:50.465Z,11.0
2022-11-07T00:42:49.952Z,11.2
2022-11-07T00:44:50.357Z,11.8
2022-11-07T00:46:50.155Z,11.8
2022-11-07T00:48:50.629Z,11.5
2022-11-07T00:50:50.070Z,11.6
2022-11-07T00:52:50.633Z,11.3
2022-11-07T00:54:50.132Z,11.5
2022-11-07T00:56:49.969Z,11.5
2022-11-07T00:58:50.429Z,11.8
2022-11-07T01:00:49.891Z,11.8
2022-11-07T01:02:50.589Z,11.2
2022-11-07T01:04:50.089Z,11.0
2022-11-07T01:06:49.768Z,10.4
2022-11-07T01:08:50.318Z,10.4
2022-11-07T01:10:49.818Z,10.9
2022-11-07T01:12:50.292Z,10.9
2022-11-07T01:14:49.728Z,10.3
2022-11-07T01:16:50.516Z,11.1
2022-11-07T01:18:49.990Z,10.3
2022-11-07T01:20:50.378Z,10.1
2022-11-07T01:22:49.856Z,9.9
2022-11-07T01:24:50.158Z,9.9
2022-11-07T01:26:50.117Z,9.4
2022-11-07T01:28:49.697Z,9.4
2022-11-07T01:30:50.178Z,9.4
2022-11-07T01:32:50.517Z,10.0
2022-11-07T01:34:50.819Z,9.9
2022-11-07T01:36:50.028Z,9.7
2022-11-07T01:38:50.668Z,9.7
2022-11-07T01:40:50.325Z,9.3
2022-11-07T01:42:49.811Z,9.3
2022-11-07T01:44:50.423Z,9.7
2022-11-07T01:46:50.454Z,9.7
2022-11-07T01:48:49.937Z,9.4
2022-11-07T01:50:50.373Z,9.5
2022-11-07T01:52:49.997Z,9.4
2022-11-07T01:54:49.886Z,9.4
2022-11-07T01:56:49.780Z,9.4
2022-11-07T01:58:50.320Z,9.0
2022-11-07T02:00:49.970Z,8.7
2022-11-07T02:02:50.808Z,8.7
2022-11-07T02:04:50.510Z,8.6
2022-11-07T02:06:50.418Z,8.6
2022-11-07T02:08:49.969Z,8.5
2022-11-07T02:10:50.421Z,8.7
2022-11-07T02:12:49.961Z,8.9
2022-11-07T02:14:50.439Z,9.1
2022-11-07T02:16:50.426Z,9.1
2022-11-07T02:18:49.789Z,8.7
2022-11-07T02:20:50.244Z,8.8
2022-11-07T02:22:50.605Z,8.1
2022-11-07T02:24:49.999Z,8.7
2022-11-07T02:26:50.669Z,8.7
2022-11-07T02:28:49.972Z,7.6
2022-11-07T02:30:50.448Z,8.2
2022-11-07T02:32:49.917Z,8.2
2022-11-07T02:34:49.792Z,8.4
2022-11-07T02:36:50.672Z,8.4
2022-11-07T02:38:50.125Z,7.5
2022-11-07T02:40:50.623Z,7.5
2022-11-07T02:42:50.186Z,7.7
2022-11-07T02:44:50.584Z,7.5
2022-11-07T02:46:50.370Z,7.5
2022-11-07T02:48:49.828Z,7.0
2022-11-07T02:50:50.315Z,7.7
2022-11-07T02:52:49.775Z,7.3
2022-11-07T02:54:49.911Z,7.3
2022-11-07T02:56:50.658Z,7.1
2022-11-07T02:58:50.188Z,7.1
2022-11-07T03:00:49.779Z,6.9
2022-11-07T03:02:50.565Z,6.9
2022-11-07T03:04:50.014Z,6.9
2022-11-07T03:06:49.779Z,6.1
2022-11-07T03:08:49.948Z,6.2
2022-11-07T03:10:50.471Z,6.2
2022-11-07T03:12:49.882Z,6.4
2022-11-07T03:14:50.551Z,6.3
2022-11-07T03:16:50.540Z,6.0
2022-11-07T03:18:49.969Z,6.0
2022-11-07T03:20:50.479Z,5.6
2022-11-07T03:22:50.041Z,5.6
2022-11-07T03:24:50.437Z,5.3
2022-11-07T03:26:50.305Z,5.1
2022-11-07T03:28:49.769Z,5.2
2022-11-07T03:30:50.154Z,5.2
2022-11-07T03:32:49.694Z,5.0
2022-11-07T03:34:50.546Z,4.8
2022-11-07T03:36:50.463Z,4.7
2022-11-07T03:38:49.933Z,4.4
2022-11-07T03:40:50.501Z,4.4
2022-11-07T03:42:49.995Z,4.7
2022-11-07T03:44:50.572Z,4.7
2022-11-07T03:46:50.521Z,4.4
2022-11-07T03:48:49.966Z,4.2
2022-11-07T03:50:50.309Z,4.2
2022-11-07T03:52:49.702Z,4.1
2022-11-07T03:54:50.185Z,4.4
2022-11-07T03:56:50.037Z,4.0
2022-11-07T03:58:50.475Z,4.0
2022-11-07T04:00:49.966Z,4.2
2022-11-07T04:02:50.780Z,4.2
2022-11-07T04:04:49.716Z,4.3
2022-11-07T04:06:50.622Z,3.8
2022-11-07T04:08:50.200Z,3.8
2022-11-07T04:10:50.627Z,3.5
2022-11-07T04:12:50.113Z,3.5
2022-11-07T04:14:50.471Z,3.4
2022-11-07T04:16:50.373Z,3.6
2022-11-07T04:18:49.943Z,3.6
2022-11-07T04:20:50.443Z,3.3
2022-11-07T04:22:49.943Z,3.6
2022-11-07T04:24:50.386Z,3.4
2022-11-07T04:26:50.220Z,3.2
2022-11-07T04:28:49.738Z,3.2
2022-11-07T04:30:50.183Z,3.6
2022-11-07T04:32:49.806Z,3.4
2022-11-07T04:34:50.106Z,3.3
2022-11-07T04:36:49.917Z,3.3
2022-11-07T04:38:50.443Z,3.2
2022-11-07T04:40:49.962Z,3.2
2022-11-07T04:42:50.323Z,3.0
2022-11-07T04:44:49.690Z,3.3
2022-11-07T04:46:50.574Z,3.3
2022-11-07T04:48:50.047Z,3.3
2022-11-07T04:50:50.455Z,3.3
2022-11-07T04:52:49.911Z,3.2
2022-11-07T04:54:50.429Z,3.2
2022-11-07T04:56:50.182Z,3.2
2022-11-07T04:58:49.796Z,3.5
2022-11-07T05:00:50.204Z,3.5
2022-11-07T05:02:49.837Z,3.8
2022-11-07T05:04:50.227Z,3.8
2022-11-07T05:06:50.096Z,3.8
2022-11-07T05:08:50.470Z,3.8
2022-11-07T05:10:50.100Z,4.0
2022-11-07T05:12:50.418Z,3.8
2022-11-07T05:14:50.004Z,3.8
2022-11-07T05:16:49.848Z,3.6
2022-11-07T05:18:50.320Z,4.0
2022-11-07T05:20:49.691Z,3.9
2022-11-07T05:22:56.367Z,3.8
2022-11-07T05:24:50.011Z,3.8
2022-11-07T05:26:49.758Z,3.8
2022-11-07T05:28:50.228Z,3.7
2022-11-07T05:30:49.739Z,3.7
2022-11-07T05:32:50.219Z,3.8
2022-11-07T05:34:50.205Z,3.8
2022-11-07T05:36:50.038Z,3.5
2022-11-07T05:38:49.669Z,3.5
2022-11-07T05:40:50.184Z,4.0
2022-11-07T05:42:49.780Z,3.5
2022-11-07T05:44:50.182Z,3.7
2022-11-07T05:46:50.060Z,3.7
2022-11-07T05:48:50.555Z,3.4
2022-11-07T05:50:50.058Z,3.4
2022-11-07T05:52:50.579Z,3.4
2022-11-07T05:54:50.417Z,3.4
2022-11-07T05:56:50.299Z,3.4
2022-11-07T05:58:49.980Z,3.3
2022-11-07T06:00:50.445Z,3.5
2022-11-07T06:02:50.336Z,3.4
2022-11-07T06:04:50.006Z,3.4
2022-11-07T06:06:49.941Z,3.5
2022-11-07T06:08:50.387Z,3.8
2022-11-07T06:10:49.944Z,3.8
2022-11-07T06:12:56.249Z,3.7
2022-11-07T06:14:49.794Z,3.7
2022-11-07T06:16:50.627Z,3.6
2022-11-07T06:18:50.211Z,3.8
2022-11-07T06:20:50.688Z,3.4
2022-11-07T06:22:50.303Z,4.0
2022-11-07T06:24:49.691Z,4.0
2022-11-07T06:26:50.372Z,4.0
2022-11-07T06:28:49.835Z,3.7
2022-11-07T06:30:50.279Z,4.0
2022-11-07T06:32:49.745Z,4.1
2022-11-07T06:34:50.406Z,4.1
2022-11-07T06:37:03.257Z,6.4
2022-11-07T06:38:50.253Z,6.4
2022-11-07T06:40:49.834Z,4.9
2022-11-07T06:42:50.175Z,4.9
2022-11-07T06:44:49.764Z,3.7
2022-11-07T06:46:50.554Z,4.2
2022-11-07T06:48:50.124Z,4.1
2022-11-07T06:50:50.530Z,4.0
2022-11-07T06:52:50.083Z,4.0
2022-11-07T06:54:50.497Z,4.4
2022-11-07T06:56:50.418Z,4.8
2022-11-07T06:58:49.808Z,4.1
2022-11-07T07:00:50.349Z,3.9
2022-11-07T07:02:59.144Z,3.9
2022-11-07T07:04:49.692Z,4.2
2022-11-07T07:06:50.497Z,4.0
2022-11-07T07:08:49.948Z,4.0
2022-11-07T07:10:50.318Z,4.0
2022-11-07T07:12:49.677Z,4.1
2022-11-07T07:14:50.137Z,4.1
2022-11-07T07:16:49.838Z,3.6
2022-11-07T07:18:50.444Z,3.9
2022-11-07T07:20:49.893Z,4.1
2022-11-07T07:23:01.529Z,4.1
2022-11-07T07:24:50.280Z,3.7
2022-11-07T07:26:50.370Z,3.8
2022-11-07T07:28:49.818Z,3.8
2022-11-07T07:30:52.380Z,3.8
2022-11-07T07:32:49.854Z,3.8
2022-11-07T07:34:50.600Z,4.3
2022-11-07T07:36:50.424Z,4.1
2022-11-07T07:38:50.033Z,4.9
2022-11-07T07:40:50.447Z,4.9
2022-11-07T07:42:50.036Z,4.2
2022-11-07T07:44:50.503Z,4.3
2022-11-07T07:46:50.427Z,4.6
2022-11-07T07:48:49.796Z,4.1
2022-11-07T07:50:50.406Z,4.1
2022-11-07T07:52:49.885Z,4.5
2022-11-07T07:54:50.455Z,4.5
2022-11-07T07:56:50.506Z,4.3
2022-11-07T07:58:50.027Z,4.4
2022-11-07T08:00:50.613Z,4.4
2022-11-07T08:02:50.421Z,4.4
2022-11-07T08:04:50.384Z,5.7
2022-11-07T08:06:50.209Z,6.3
2022-11-07T08:08:50.659Z,5.0
2022-11-07T08:10:50.087Z,5.0
2022-11-07T08:12:50.446Z,4.5
2022-11-07T08:14:49.927Z,4.3
2022-11-07T08:16:49.821Z,4.2
2022-11-07T08:18:50.233Z,4.2
2022-11-07T08:20:50.598Z,4.6
2022-11-07T08:22:50.117Z,4.1
2022-11-07T08:24:50.373Z,4.5
2022-11-07T08:26:50.295Z,6.3
2022-11-07T08:28:49.722Z,6.3
2022-11-07T08:30:50.423Z,27.1
2022-11-07T08:32:50.114Z,8.6
2022-11-07T08:34:50.232Z,4.5
2022-11-07T08:36:50.158Z,4.1
2022-11-07T08:38:50.625Z,4.1
2022-11-07T08:40:50.300Z,3.8
2022-11-07T08:42:49.834Z,3.8
2022-11-07T08:44:50.575Z,4.1
2022-11-07T08:46:50.497Z,4.1
2022-11-07T08:48:50.129Z,4.0
2022-11-07T08:50:50.635Z,3.8
2022-11-07T08:52:50.115Z,3.8
2022-11-07T08:54:50.554Z,4.3
2022-11-07T08:56:50.419Z,4.3
2022-11-07T08:58:49.798Z,4.0
2022-11-07T09:00:50.565Z,3.8
2022-11-07T09:04:50.346Z,4.1
2022-11-07T09:06:49.705Z,4.1
2022-11-07T09:08:50.251Z,4.2
2022-11-07T09:10:50.674Z,3.9
2022-11-07T09:12:50.126Z,3.9
2022-11-07T09:14:50.540Z,3.9
2022-11-07T09:16:50.505Z,3.7
2022-11-07T09:18:49.792Z,3.7
2022-11-07T09:20:50.363Z,3.9
2022-11-07T09:22:49.946Z,3.6
2022-11-07T09:24:50.430Z,3.8
2022-11-07T09:26:50.336Z,3.8
2022-11-07T09:28:57.307Z,3.4
2022-11-07T09:30:49.718Z,3.3
2022-11-07T09:32:50.144Z,3.6
2022-11-07T09:35:00.615Z,4.0
2022-11-07T09:36:50.510Z,4.0
2022-11-07T09:38:50.160Z,5.0
2022-11-07T09:40:50.648Z,4.1
2022-11-07T09:42:50.112Z,3.5
2022-11-07T09:44:50.561Z,3.5
2022-11-07T09:46:50.413Z,4.7
2022-11-07T09:48:49.866Z,3.9
2022-11-07T09:50:50.516Z,3.6
2022-11-07T09:52:49.986Z,3.8
2022-11-07T09:54:50.473Z,3.4
2022-11-07T09:56:50.347Z,3.4
2022-11-07T09:58:49.924Z,2.5
2022-11-07T10:00:50.409Z,2.2
2022-11-07T10:02:50.325Z,2.8
2022-11-07T10:04:50.319Z,2.8
2022-11-07T10:06:50.207Z,2.4
2022-11-07T10:08:49.699Z,2.8
2022-11-07T10:10:50.490Z,2.1
2022-11-07T10:12:50.316Z,2.1
2022-11-07T10:14:49.958Z,2.4
2022-11-07T10:16:49.902Z,2.1
2022-11-07T10:18:50.358Z,2.2
2022-11-07T10:20:49.874Z,2.3
2022-11-07T10:22:50.432Z,2.3
2022-11-07T10:24:49.845Z,50.5
2022-11-07T10:26:50.655Z,2.1
2022-11-07T10:28:50.118Z,2.1
2022-11-07T10:30:49.791Z,1.8
2022-11-07T10:32:50.263Z,1.8
2022-11-07T10:34:54.730Z,2.3
2022-11-07T10:36:50.645Z,1.8
2022-11-07T10:38:50.126Z,2.3
2022-11-07T10:40:50.612Z,13.0
2022-11-07T10:42:50.094Z,13.0
2022-11-07T10:44:50.584Z,2.7
2022-11-07T10:46:54.792Z,2.7
2022-11-07T10:48:50.450Z,1.9
2022-11-07T10:50:49.877Z,1.9
2022-11-07T10:52:50.313Z,2.0
2022-11-07T10:54:49.813Z,2.0
2022-11-07T10:56:50.636Z,2.3
2022-11-07T10:58:50.172Z,3.0
2022-11-07T11:00:49.777Z,2.0
2022-11-07T11:02:50.345Z,2.0
2022-11-07T11:04:51.356Z,2.0
2022-11-07T11:06:50.398Z,2.3
2022-11-07T11:08:49.930Z,2.0
2022-11-07T11:10:50.416Z,1.7
2022-11-07T11:12:49.928Z,1.7
2022-11-07T11:14:50.351Z,1.7
2022-11-07T11:16:50.304Z,1.7
2022-11-07T11:18:50.042Z,1.8
2022-11-07T11:20:50.548Z,1.7
2022-11-07T11:22:50.053Z,1.7
2022-11-07T11:24:50.407Z,1.9
2022-11-07T11:26:49.839Z,2.0
2022-11-07T11:28:50.267Z,1.8
2022-11-07T11:30:49.844Z,1.8
2022-11-07T11:32:49.867Z,1.9
2022-11-07T11:34:49.787Z,2.1
2022-11-07T11:36:50.672Z,2.1
2022-11-07T11:38:50.156Z,2.9
2022-11-07T11:40:49.713Z,2.9
2022-11-07T11:42:50.240Z,1.9
2022-11-07T11:44:49.750Z,4.1
2022-11-07T11:46:50.632Z,2.0
2022-11-07T11:48:50.367Z,2.0
2022-11-07T11:50:49.922Z,2.6
2022-11-07T11:52:49.857Z,2.3
2022-11-07T11:54:50.447Z,2.3
2022-11-07T11:56:50.315Z,3.1
2022-11-07T11:58:49.831Z,2.0
2022-11-07T12:00:50.295Z,2.0
2022-11-07T12:02:50.020Z,1.7
2022-11-07T12:04:50.050Z,1.9
2022-11-07T12:06:49.969Z,1.7
2022-11-07T12:08:50.533Z,1.7
2022-11-07T12:10:50.189Z,1.7
2022-11-07T12:12:49.747Z,1.6
2022-11-07T12:14:57.752Z,1.5
2022-11-07T12:16:50.184Z,1.7
2022-11-07T12:18:49.682Z,1.7
2022-11-07T12:20:50.244Z,1.4
2022-11-07T12:22:49.774Z,5.2
2022-11-07T12:24:50.230Z,4.4
2022-11-07T12:26:50.117Z,1.5
2022-11-07T12:28:50.655Z,1.5
2022-11-07T12:30:50.311Z,1.7
2022-11-07T12:32:49.702Z,1.4
2022-11-07T12:34:49.738Z,1.4
2022-11-07T12:36:50.534Z,1.4
2022-11-07T12:38:50.193Z,1.5
2022-11-07T12:40:49.764Z,1.6
2022-11-07T12:42:50.423Z,1.8
2022-11-07T12:44:50.294Z,1.6
2022-11-07T12:46:50.191Z,1.4
2022-11-07T12:48:49.686Z,1.4
2022-11-07T12:50:50.199Z,1.4
2022-11-07T12:52:50.605Z,1.3
2022-11-07T12:54:50.140Z,1.9
2022-11-07T12:56:49.964Z,1.7
2022-11-07T12:58:50.417Z,1.7
2022-11-07T13:00:50.009Z,1.5
2022-11-07T13:02:49.723Z,1.5
2022-11-07T13:04:50.602Z,1.8
2022-11-07T13:06:50.636Z,1.8
2022-11-07T13:08:50.292Z,1.9
2022-11-07T13:10:49.829Z,1.7
2022-11-07T13:12:50.442Z,1.7
2022-11-07T13:14:49.911Z,1.3
2022-11-07T13:16:49.843Z,1.3
2022-11-07T13:18:50.435Z,1.4
2022-11-07T13:20:50.005Z,1.4
2022-11-07T13:22:49.956Z,1.7
2022-11-07T13:24:50.640Z,1.7
2022-11-07T13:26:50.399Z,1.5
2022-11-07T13:28:49.998Z,1.5
2022-11-07T13:30:50.533Z,1.7
2022-11-07T13:32:50.170Z,1.4
2022-11-07T13:34:50.336Z,1.4
2022-11-07T13:36:50.168Z,1.8
2022-11-07T13:38:50.625Z,1.8
2022-11-07T13:40:50.076Z,1.6
2022-11-07T13:42:50.644Z,1.5
2022-11-07T13:44:50.058Z,1.7
2022-11-07T13:46:49.940Z,1.7
2022-11-07T13:48:50.643Z,1.7
2022-11-07T13:50:50.461Z,1.8
2022-11-07T13:52:50.256Z,1.5
2022-11-07T13:54:50.345Z,1.5
2022-11-07T13:56:50.241Z,1.5
2022-11-07T13:58:50.639Z,1.9
2022-11-07T14:00:50.485Z,1.3
2022-11-07T14:02:50.099Z,1.7
2022-11-07T14:05:15.707Z,1.7
2022-11-07T14:06:50.354Z,2.1
2022-11-07T14:08:49.865Z,1.7
2022-11-07T14:10:50.319Z,1.8
2022-11-07T14:12:49.808Z,1.8
2022-11-07T14:14:50.223Z,1.7
2022-11-07T14:16:50.374Z,1.7
2022-11-07T14:18:49.909Z,1.6
2022-11-07T14:20:49.973Z,1.9
2022-11-07T14:22:50.606Z,1.9
2022-11-07T14:24:50.110Z,1.6
2022-11-07T14:26:49.921Z,1.6
2022-11-07T14:28:49.897Z,1.8
2022-11-07T14:30:49.771Z,1.8
2022-11-07T14:32:49.747Z,2.1
2022-11-07T14:34:49.787Z,2.1
2022-11-07T14:36:50.645Z,1.9
2022-11-07T14:38:50.221Z,1.9
2022-11-07T14:40:49.771Z,1.6
2022-11-07T14:42:50.501Z,1.6
2022-11-07T14:44:55.604Z,1.6
2022-11-07T14:46:50.198Z,1.9
2022-11-07T14:48:49.731Z,2.1
2022-11-07T14:50:50.426Z,2.1
2022-11-07T14:52:49.924Z,2.1
2022-11-07T14:54:49.778Z,2.0
2022-11-07T14:56:49.706Z,1.9
2022-11-07T14:58:50.354Z,2.0
2022-11-07T15:00:49.803Z,2.1
2022-11-07T15:02:50.782Z,2.1
2022-11-07T15:04:50.668Z,2.4
2022-11-07T15:06:50.140Z,2.4
2022-11-07T15:08:50.603Z,3.0
2022-11-07T15:10:50.037Z,3.0
2022-11-07T15:12:50.578Z,2.9
2022-11-07T15:14:49.968Z,2.9
2022-11-07T15:16:49.949Z,2.1
2022-11-07T15:18:50.442Z,2.6
2022-11-07T15:20:50.110Z,2.6
2022-11-07T15:22:50.688Z,3.9
2022-11-07T15:24:50.269Z,3.9
2022-11-07T15:26:50.191Z,4.3
2022-11-07T15:28:49.724Z,3.8
2022-11-07T15:30:50.249Z,3.8
2022-11-07T15:32:50.663Z,4.5
2022-11-07T15:35:22.865Z,12.9
2022-11-07T15:36:49.802Z,7.0
2022-11-07T15:38:50.381Z,4.9
2022-11-07T15:40:49.726Z,4.1
2022-11-07T15:42:50.314Z,4.1
2022-11-07T15:44:49.702Z,3.8
2022-11-07T15:46:50.492Z,5.4
2022-11-07T15:48:49.920Z,5.0
2022-11-07T15:50:50.532Z,4.9
2022-11-07T15:52:50.076Z,4.9
2022-11-07T15:54:49.803Z,6.7
2022-11-07T15:56:58.467Z,9.6
2022-11-07T15:58:50.341Z,9.3
2022-11-07T16:00:50.029Z,9.3
2022-11-07T16:02:50.995Z,5.0
2022-11-07T16:04:50.295Z,7.3
2022-11-07T16:06:50.188Z,8.5
2022-11-07T16:08:49.777Z,9.6
2022-11-07T16:10:50.520Z,9.6
2022-11-07T16:12:50.125Z,9.6
2022-11-07T16:14:49.705Z,7.3
2022-11-07T16:16:50.543Z,8.4
2022-11-07T16:18:50.076Z,8.4
2022-11-07T16:20:50.542Z,11.2
2022-11-07T16:22:50.095Z,10.3
2022-11-07T16:24:50.572Z,8.8
2022-11-07T16:26:50.365Z,8.4
2022-11-07T16:28:49.949Z,8.4
2022-11-07T16:30:50.330Z,8.7
2022-11-07T16:32:49.775Z,4.6
2022-11-07T16:34:49.960Z,6.8
2022-11-07T16:36:49.819Z,6.9
2022-11-07T16:38:50.163Z,6.9
2022-11-07T16:40:49.716Z,7.2
2022-11-07T16:42:50.097Z,6.8
2022-11-07T16:44:50.803Z,6.5
2022-11-07T16:46:49.850Z,6.5
2022-11-07T16:48:50.455Z,5.6
2022-11-07T16:50:49.991Z,5.9
2022-11-07T16:52:50.634Z,4.3
2022-11-07T16:54:50.180Z,4.0
2022-11-07T16:56:49.938Z,3.8
2022-11-07T16:58:50.452Z,3.8
2022-11-07T17:00:50.031Z,3.7
2022-11-07T17:02:50.876Z,3.2
2022-11-07T17:04:50.586Z,3.4
2022-11-07T17:06:50.075Z,3.4
2022-11-07T17:08:50.605Z,3.5
2022-11-07T17:10:50.063Z,3.9
2022-11-07T17:12:50.487Z,3.6
2022-11-07T17:14:50.022Z,4.0
2022-11-07T17:16:49.838Z,4.0
2022-11-07T17:18:50.400Z,3.5
2022-11-07T17:20:52.507Z,3.5
2022-11-07T17:22:50.257Z,3.9
2022-11-07T17:24:49.746Z,3.5
2022-11-07T17:26:50.590Z,3.7
2022-11-07T17:28:49.959Z,3.7
2022-11-07T17:30:50.495Z,3.6
2022-11-07T17:32:49.919Z,3.8
2022-11-07T17:35:25.878Z,3.8
2022-11-07T17:36:50.384Z,3.8
2022-11-07T17:38:49.799Z,3.8
2022-11-07T17:40:50.264Z,4.1
2022-11-07T17:42:50.655Z,4.3
2022-11-07T17:44:50.102Z,4.4
2022-11-07T17:46:49.919Z,4.5
2022-11-07T17:48:50.398Z,4.5
2022-11-07T17:50:49.789Z,4.5
2022-11-07T17:52:50.288Z,4.1
2022-11-07T17:54:49.819Z,4.1
2022-11-07T17:56:50.667Z,4.8
2022-11-07T17:58:50.181Z,4.8
2022-11-07T18:00:50.611Z,4.6
2022-11-07T18:02:50.514Z,4.2
2022-11-07T18:04:50.345Z,4.2
2022-11-07T18:06:50.226Z,5.0
2022-11-07T18:08:53.261Z,4.4
2022-11-07T18:10:56.609Z,4.6
2022-11-07T18:12:50.247Z,4.6
2022-11-07T18:14:49.716Z,4.6
2022-11-07T18:16:50.499Z,5.1
2022-11-07T18:18:49.907Z,5.0
2022-11-07T18:20:50.288Z,4.4
2022-11-07T18:22:49.829Z,4.4
2022-11-07T18:24:50.341Z,4.8
2022-11-07T18:26:50.145Z,4.6
2022-11-07T18:28:50.605Z,5.1
2022-11-07T18:30:50.190Z,5.0
2022-11-07T18:32:50.561Z,5.0
2022-11-07T18:34:50.433Z,4.9
2022-11-07T18:36:50.354Z,4.7
2022-11-07T18:38:49.949Z,4.3
2022-11-07T18:40:50.349Z,4.6
2022-11-07T18:42:49.878Z,4.6
2022-11-07T18:44:50.305Z,4.5
2022-11-07T18:46:50.074Z,4.9
2022-11-07T18:48:50.531Z,4.6
2022-11-07T18:50:50.304Z,4.8
2022-11-07T18:52:50.297Z,4.8
2022-11-07T18:54:49.929Z,4.6
2022-11-07T18:56:49.771Z,5.2
2022-11-07T18:58:50.354Z,5.2
2022-11-07T19:00:49.845Z,5.2
2022-11-07T19:02:50.651Z,5.3
2022-11-07T19:04:49.867Z,5.0
2022-11-07T19:06:49.805Z,5.3
2022-11-07T19:08:50.169Z,5.5
2022-11-07T19:10:50.623Z,5.5
2022-11-07T19:12:50.084Z,5.7
2022-11-07T19:14:50.594Z,5.7
2022-11-07T19:16:50.450Z,5.5
2022-11-07T19:18:50.139Z,5.3
2022-11-07T19:20:49.687Z,5.3
2022-11-07T19:22:50.080Z,5.9
2022-11-07T19:24:49.712Z,5.4
2022-11-07T19:26:50.530Z,5.8
2022-11-07T19:28:50.027Z,5.6
2022-11-07T19:30:50.460Z,5.6
2022-11-07T19:32:49.910Z,5.9
2022-11-07T19:34:49.905Z,5.9
2022-11-07T19:36:50.650Z,5.8
2022-11-07T19:38:50.119Z,5.9
2022-11-07T19:40:49.743Z,5.9
2022-11-07T19:42:50.278Z,6.3
2022-11-07T19:44:56.537Z,6.3
2022-11-07T19:46:50.608Z,6.4
2022-11-07T19:48:49.761Z,5.9
2022-11-07T19:50:50.322Z,5.9
2022-11-07T19:52:49.792Z,6.2
2022-11-07T19:54:50.244Z,6.3
2022-11-07T19:56:57.850Z,6.1
2022-11-07T19:58:50.208Z,6.4
2022-11-07T20:00:49.794Z,6.4
2022-11-07T20:02:50.574Z,5.9
2022-11-07T20:04:50.131Z,6.0
2022-11-07T20:06:50.045Z,6.3
2022-11-07T20:08:50.458Z,6.3
2022-11-07T20:10:49.857Z,6.3
2022-11-07T20:12:50.426Z,5.8
2022-11-07T20:14:49.878Z,5.7
2022-11-07T20:16:50.622Z,6.0
2022-11-07T20:18:50.150Z,6.0
2022-11-07T20:20:50.555Z,6.2
2022-11-07T20:22:50.034Z,6.5
2022-11-07T20:24:50.564Z,6.8
2022-11-07T20:26:50.486Z,6.3
2022-11-07T20:28:49.971Z,6.3
2022-11-07T20:30:50.490Z,6.7
2022-11-07T20:32:49.812Z,6.7
2022-11-07T20:34:54.124Z,7.0
2022-11-07T20:36:49.976Z,6.9
2022-11-07T20:38:50.585Z,6.9
2022-11-07T20:40:50.002Z,7.1
2022-11-07T20:42:50.591Z,7.4
2022-11-07T20:44:50.038Z,7.4
2022-11-07T20:46:50.024Z,7.8
2022-11-07T20:48:50.553Z,7.8
2022-11-07T20:50:50.106Z,8.4
2022-11-07T20:52:50.562Z,8.2
2022-11-07T20:54:50.108Z,8.9
2022-11-07T20:56:49.892Z,8.9
2022-11-07T20:58:50.462Z,8.0
2022-11-07T21:00:50.058Z,8.0
2022-11-07T21:02:49.960Z,8.0
2022-11-07T21:06:49.794Z,7.9
2022-11-07T21:08:50.289Z,7.9
2022-11-07T21:10:50.133Z,7.9
2022-11-07T21:12:50.608Z,7.7
2022-11-07T21:14:50.679Z,7.7
2022-11-07T21:16:50.496Z,7.7
2022-11-07T21:18:49.933Z,7.7
2022-11-07T21:20:50.369Z,7.9
2022-11-07T21:22:49.792Z,7.9
2022-11-07T21:24:50.260Z,8.1
2022-11-07T21:26:50.023Z,7.7
2022-11-07T21:28:50.593Z,7.7
2022-11-07T21:30:50.054Z,7.6
2022-11-07T21:32:50.543Z,7.6
2022-11-07T21:34:50.649Z,8.0
2022-11-07T21:36:50.372Z,7.9
2022-11-07T21:38:49.790Z,8.3
2022-11-07T21:40:50.376Z,7.6
2022-11-07T21:42:49.869Z,7.9
2022-11-07T21:44:50.478Z,7.9
2022-11-07T21:46:49.835Z,8.0
2022-11-07T21:48:50.415Z,8.0
2022-11-07T21:50:50.085Z,7.3
2022-11-07T21:52:49.763Z,7.3
2022-11-07T21:54:50.244Z,8.0
2022-11-07T21:56:50.288Z,8.0
2022-11-07T21:58:49.710Z,7.7
2022-11-07T22:00:50.116Z,7.9
2022-11-07T22:02:49.819Z,8.0
2022-11-07T22:04:49.740Z,8.0
2022-11-07T22:06:50.520Z,8.0
2022-11-07T22:08:50.074Z,8.2
2022-11-07T22:10:50.586Z,7.9
2022-11-07T22:12:50.054Z,7.3
2022-11-07T22:14:50.550Z,7.3
2022-11-07T22:16:50.355Z,7.9
2022-11-07T22:18:49.783Z,8.5
2022-11-07T22:20:50.155Z,7.9
2022-11-07T22:22:49.719Z,8.6
2022-11-07T22:24:50.097Z,8.6
2022-11-07T22:26:49.992Z,8.7
2022-11-07T22:28:50.459Z,9.6
2022-11-07T22:30:50.076Z,9.0
2022-11-07T22:32:50.560Z,9.3
2022-11-07T22:34:50.607Z,9.3
2022-11-07T22:36:50.448Z,9.6
2022-11-07T22:38:50.037Z,8.9
2022-11-07T22:40:50.505Z,10.0
2022-11-07T22:42:50.346Z,10.0
2022-11-07T22:44:49.844Z,10.1
2022-11-07T22:46:49.800Z,10.2
2022-11-07T22:48:50.353Z,10.0
2022-11-07T22:50:49.815Z,9.3
2022-11-07T22:52:50.383Z,9.9
2022-11-07T22:54:49.859Z,9.9
2022-11-07T22:56:49.723Z,10.2
2022-11-07T22:58:50.140Z,11.2
2022-11-07T23:00:49.824Z,11.2
2022-11-07T23:02:50.505Z,11.7
2022-11-07T23:04:50.048Z,10.5
2022-11-07T23:06:50.000Z,10.7
2022-11-07T23:08:50.500Z,10.7
2022-11-07T23:10:49.959Z,10.7
2022-11-07T23:12:50.525Z,10.2
2022-11-07T23:14:50.024Z,10.1
2022-11-07T23:16:49.963Z,10.6
2022-11-07T23:18:50.486Z,9.7
2022-11-07T23:20:50.133Z,9.8
2022-11-07T23:22:50.629Z,9.8
2022-11-07T23:24:50.219Z,9.8
2022-11-07T23:26:50.092Z,10.2
2022-11-07T23:28:50.660Z,9.8
2022-11-07T23:30:50.084Z,9.8
2022-11-07T23:32:50.622Z,10.0
2022-11-07T23:34:50.551Z,10.0
2022-11-07T23:36:50.357Z,9.3
2022-11-07T23:38:49.773Z,8.6
2022-11-07T23:40:50.281Z,8.6
2022-11-07T23:42:49.700Z,9.0
2022-11-07T23:44:50.271Z,9.5
2022-11-07T23:46:50.071Z,9.5
2022-11-07T23:48:50.600Z,9.1
2022-11-07T23:50:50.027Z,9.1
2022-11-07T23:52:50.584Z,9.4
2022-11-07T23:54:49.979Z,8.7
2022-11-07T23:56:49.748Z,9.3
2022-11-07T23:58:50.230Z,9.3
